sensor_id;sensor_type;location;lat;lon;timestamp;P1;durP1;ratioP1;P2;durP2;ratioP2
36351;SDS011;22382;44.768;17.206;2023-06-10T00:02:25;6.15;;;4.72;;
36351;SDS011;22382;44.768;17.206;2023-06-10T00:04:53;6.82;;;5.22;;
36351;SDS011;22382;44.768;17.206;2023-06-10T00:07:20;7.80;;;5.18;;
36351;SDS011;22382;44.768;17.206;2023-06-10T00:09:47;8.32;;;4.95;;
36351;SDS011;22382;44.768;17.206;2023-06-10T00:12:15;7.72;;;5.07;;
36351;SDS011;22382;44.768;17.206;2023-06-10T00:14:43;6.35;;;4.70;;
36351;SDS011;22382;44.768;17.206;2023-06-10T00:17:10;6.90;;;5.05;;
36351;SDS011;22382;44.768;17.206;2023-06-10T00:19:37;6.95;;;4.68;;
36351;SDS011;22382;44.768;17.206;2023-06-10T00:22:08;6.93;;;4.70;;
36351;SDS011;22382;44.768;17.206;2023-06-10T00:24:38;6.85;;;4.78;;
36351;SDS011;22382;44.768;17.206;2023-06-10T00:27:06;7.55;;;4.93;;
36351;SDS011;22382;44.768;17.206;2023-06-10T00:29:34;6.90;;;4.97;;
36351;SDS011;22382;44.768;17.206;2023-06-10T00:32:01;5.25;;;4.25;;
36351;SDS011;22382;44.768;17.206;2023-06-10T00:34:29;8.00;;;4.22;;
36351;SDS011;22382;44.768;17.206;2023-06-10T00:36:56;7.35;;;4.63;;
36351;SDS011;22382;44.768;17.206;2023-06-10T00:39:23;5.70;;;4.45;;
36351;SDS011;22382;44.768;17.206;2023-06-10T00:41:51;5.13;;;4.57;;
36351;SDS011;22382;44.768;17.206;2023-06-10T00:44:18;6.03;;;4.30;;
36351;SDS011;22382;44.768;17.206;2023-06-10T00:46:45;5.03;;;4.25;;
36351;SDS011;22382;44.768;17.206;2023-06-10T00:49:13;6.22;;;4.57;;
36351;SDS011;22382;44.768;17.206;2023-06-10T00:51:40;6.97;;;4.47;;
36351;SDS011;22382;44.768;17.206;2023-06-10T00:54:08;10.20;;;4.75;;
36351;SDS011;22382;44.768;17.206;2023-06-10T00:56:35;6.57;;;4.10;;
36351;SDS011;22382;44.768;17.206;2023-06-10T00:59:03;5.30;;;4.53;;
36351;SDS011;22382;44.768;17.206;2023-06-10T01:01:31;6.65;;;4.57;;
36351;SDS011;22382;44.768;17.206;2023-06-10T01:03:58;5.95;;;4.63;;
36351;SDS011;22382;44.768;17.206;2023-06-10T01:06:43;5.07;;;4.45;;
36351;SDS011;22382;44.768;17.206;2023-06-10T01:15:06;6.82;;;4.35;;
36351;SDS011;22382;44.768;17.206;2023-06-10T01:17:37;5.18;;;4.25;;
36351;SDS011;22382;44.768;17.206;2023-06-10T01:20:28;7.70;;;4.75;;
36351;SDS011;22382;44.768;17.206;2023-06-10T01:22:57;6.03;;;4.30;;
36351;SDS011;22382;44.768;17.206;2023-06-10T01:25:26;6.53;;;4.30;;
36351;SDS011;22382;44.768;17.206;2023-06-10T01:30:41;5.30;;;4.10;;
36351;SDS011;22382;44.768;17.206;2023-06-10T01:33:22;5.90;;;3.95;;
36351;SDS011;22382;44.768;17.206;2023-06-10T01:35:55;5.95;;;4.15;;
36351;SDS011;22382;44.768;17.206;2023-06-10T01:38:27;5.55;;;3.85;;
36351;SDS011;22382;44.768;17.206;2023-06-10T01:40:59;5.40;;;4.20;;
36351;SDS011;22382;44.768;17.206;2023-06-10T01:43:28;5.60;;;4.15;;
36351;SDS011;22382;44.768;17.206;2023-06-10T01:45:55;4.93;;;4.28;;
36351;SDS011;22382;44.768;17.206;2023-06-10T01:48:22;6.07;;;4.43;;
36351;SDS011;22382;44.768;17.206;2023-06-10T01:50:49;9.35;;;4.43;;
36351;SDS011;22382;44.768;17.206;2023-06-10T01:53:17;6.78;;;4.20;;
36351;SDS011;22382;44.768;17.206;2023-06-10T01:55:44;4.50;;;4.10;;
36351;SDS011;22382;44.768;17.206;2023-06-10T01:58:11;8.55;;;4.63;;
36351;SDS011;22382;44.768;17.206;2023-06-10T02:00:39;7.97;;;4.47;;
36351;SDS011;22382;44.768;17.206;2023-06-10T02:03:06;6.03;;;4.80;;
36351;SDS011;22382;44.768;17.206;2023-06-10T02:05:33;7.18;;;4.93;;
36351;SDS011;22382;44.768;17.206;2023-06-10T02:08:01;7.00;;;4.78;;
36351;SDS011;22382;44.768;17.206;2023-06-10T02:10:28;9.90;;;4.57;;
36351;SDS011;22382;44.768;17.206;2023-06-10T02:12:56;5.22;;;4.10;;
36351;SDS011;22382;44.768;17.206;2023-06-10T02:15:23;5.53;;;4.15;;
36351;SDS011;22382;44.768;17.206;2023-06-10T02:17:51;5.32;;;4.32;;
36351;SDS011;22382;44.768;17.206;2023-06-10T02:20:19;5.93;;;4.10;;
36351;SDS011;22382;44.768;17.206;2023-06-10T02:22:46;8.02;;;4.30;;
36351;SDS011;22382;44.768;17.206;2023-06-10T02:25:13;7.85;;;4.70;;
36351;SDS011;22382;44.768;17.206;2023-06-10T02:27:41;8.45;;;4.78;;
36351;SDS011;22382;44.768;17.206;2023-06-10T02:30:08;8.43;;;4.97;;
36351;SDS011;22382;44.768;17.206;2023-06-10T02:32:37;9.77;;;5.45;;
36351;SDS011;22382;44.768;17.206;2023-06-10T02:35:04;6.78;;;5.13;;
36351;SDS011;22382;44.768;17.206;2023-06-10T02:37:32;6.75;;;5.00;;
36351;SDS011;22382;44.768;17.206;2023-06-10T02:39:59;6.30;;;4.75;;
36351;SDS011;22382;44.768;17.206;2023-06-10T02:42:27;5.45;;;4.75;;
36351;SDS011;22382;44.768;17.206;2023-06-10T02:44:54;6.13;;;4.45;;
36351;SDS011;22382;44.768;17.206;2023-06-10T02:47:21;8.23;;;5.03;;
36351;SDS011;22382;44.768;17.206;2023-06-10T02:49:48;6.38;;;4.32;;
36351;SDS011;22382;44.768;17.206;2023-06-10T02:52:16;8.55;;;4.30;;
36351;SDS011;22382;44.768;17.206;2023-06-10T02:54:43;8.27;;;4.43;;
36351;SDS011;22382;44.768;17.206;2023-06-10T02:57:11;7.15;;;4.68;;
36351;SDS011;22382;44.768;17.206;2023-06-10T02:59:40;8.82;;;4.88;;
36351;SDS011;22382;44.768;17.206;2023-06-10T03:02:07;5.68;;;4.57;;
36351;SDS011;22382;44.768;17.206;2023-06-10T03:04:35;7.40;;;4.22;;
36351;SDS011;22382;44.768;17.206;2023-06-10T03:07:04;5.47;;;4.18;;
36351;SDS011;22382;44.768;17.206;2023-06-10T03:09:33;6.70;;;4.03;;
36351;SDS011;22382;44.768;17.206;2023-06-10T03:12:01;4.80;;;3.97;;
36351;SDS011;22382;44.768;17.206;2023-06-10T03:14:28;6.90;;;3.85;;
36351;SDS011;22382;44.768;17.206;2023-06-10T03:16:56;5.10;;;4.20;;
36351;SDS011;22382;44.768;17.206;2023-06-10T03:19:23;7.57;;;4.40;;
36351;SDS011;22382;44.768;17.206;2023-06-10T03:22:06;4.22;;;3.75;;
36351;SDS011;22382;44.768;17.206;2023-06-10T03:24:38;5.20;;;4.35;;
36351;SDS011;22382;44.768;17.206;2023-06-10T03:27:07;6.40;;;4.05;;
36351;SDS011;22382;44.768;17.206;2023-06-10T03:29:34;6.47;;;4.05;;
36351;SDS011;22382;44.768;17.206;2023-06-10T03:32:02;6.43;;;4.00;;
36351;SDS011;22382;44.768;17.206;2023-06-10T03:34:29;5.80;;;4.07;;
36351;SDS011;22382;44.768;17.206;2023-06-10T03:36:57;9.10;;;4.07;;
36351;SDS011;22382;44.768;17.206;2023-06-10T03:39:25;5.00;;;3.50;;
36351;SDS011;22382;44.768;17.206;2023-06-10T03:41:55;6.78;;;4.05;;
36351;SDS011;22382;44.768;17.206;2023-06-10T03:44:26;5.47;;;3.88;;
36351;SDS011;22382;44.768;17.206;2023-06-10T03:46:54;4.40;;;3.22;;
36351;SDS011;22382;44.768;17.206;2023-06-10T03:49:22;6.82;;;3.75;;
36351;SDS011;22382;44.768;17.206;2023-06-10T03:51:52;8.25;;;3.30;;
36351;SDS011;22382;44.768;17.206;2023-06-10T03:54:20;3.83;;;3.22;;
36351;SDS011;22382;44.768;17.206;2023-06-10T03:56:47;5.38;;;3.00;;
36351;SDS011;22382;44.768;17.206;2023-06-10T03:59:14;7.70;;;3.25;;
36351;SDS011;22382;44.768;17.206;2023-06-10T04:01:42;4.50;;;3.03;;
36351;SDS011;22382;44.768;17.206;2023-06-10T04:04:11;5.30;;;2.90;;
36351;SDS011;22382;44.768;17.206;2023-06-10T04:06:44;4.25;;;3.05;;
36351;SDS011;22382;44.768;17.206;2023-06-10T04:09:12;4.40;;;2.80;;
36351;SDS011;22382;44.768;17.206;2023-06-10T04:11:41;5.28;;;3.30;;
36351;SDS011;22382;44.768;17.206;2023-06-10T04:14:08;5.45;;;3.05;;
36351;SDS011;22382;44.768;17.206;2023-06-10T04:16:36;4.45;;;2.70;;
36351;SDS011;22382;44.768;17.206;2023-06-10T04:19:04;4.00;;;2.97;;
36351;SDS011;22382;44.768;17.206;2023-06-10T04:21:32;4.22;;;3.00;;
36351;SDS011;22382;44.768;17.206;2023-06-10T04:23:59;4.15;;;2.72;;
36351;SDS011;22382;44.768;17.206;2023-06-10T04:26:27;4.90;;;2.80;;
36351;SDS011;22382;44.768;17.206;2023-06-10T04:28:54;7.82;;;2.75;;
36351;SDS011;22382;44.768;17.206;2023-06-10T04:31:21;4.10;;;2.75;;
36351;SDS011;22382;44.768;17.206;2023-06-10T04:33:49;6.53;;;3.13;;
36351;SDS011;22382;44.768;17.206;2023-06-10T04:36:16;4.07;;;2.80;;
36351;SDS011;22382;44.768;17.206;2023-06-10T04:38:43;6.22;;;3.00;;
36351;SDS011;22382;44.768;17.206;2023-06-10T04:41:10;5.90;;;3.00;;
36351;SDS011;22382;44.768;17.206;2023-06-10T04:43:38;3.67;;;2.88;;
36351;SDS011;22382;44.768;17.206;2023-06-10T04:46:05;5.75;;;3.03;;
36351;SDS011;22382;44.768;17.206;2023-06-10T04:48:34;3.28;;;2.60;;
36351;SDS011;22382;44.768;17.206;2023-06-10T04:51:02;3.92;;;2.92;;
36351;SDS011;22382;44.768;17.206;2023-06-10T04:53:29;3.95;;;2.72;;
36351;SDS011;22382;44.768;17.206;2023-06-10T04:55:57;5.80;;;3.45;;
36351;SDS011;22382;44.768;17.206;2023-06-10T04:58:24;4.63;;;3.28;;
36351;SDS011;22382;44.768;17.206;2023-06-10T05:00:51;4.78;;;3.10;;
36351;SDS011;22382;44.768;17.206;2023-06-10T05:03:18;4.68;;;2.83;;
36351;SDS011;22382;44.768;17.206;2023-06-10T05:05:46;4.20;;;3.00;;
36351;SDS011;22382;44.768;17.206;2023-06-10T05:08:13;5.70;;;3.00;;
36351;SDS011;22382;44.768;17.206;2023-06-10T05:10:40;4.13;;;2.60;;
36351;SDS011;22382;44.768;17.206;2023-06-10T05:13:08;3.58;;;2.58;;
36351;SDS011;22382;44.768;17.206;2023-06-10T05:15:35;8.75;;;3.00;;
36351;SDS011;22382;44.768;17.206;2023-06-10T05:18:03;7.80;;;2.75;;
36351;SDS011;22382;44.768;17.206;2023-06-10T05:20:31;7.60;;;2.58;;
36351;SDS011;22382;44.768;17.206;2023-06-10T05:22:58;4.72;;;2.85;;
36351;SDS011;22382;44.768;17.206;2023-06-10T05:25:26;4.00;;;2.85;;
36351;SDS011;22382;44.768;17.206;2023-06-10T05:27:56;2.90;;;2.55;;
36351;SDS011;22382;44.768;17.206;2023-06-10T05:30:23;5.35;;;2.90;;
36351;SDS011;22382;44.768;17.206;2023-06-10T05:32:52;5.28;;;2.67;;
36351;SDS011;22382;44.768;17.206;2023-06-10T05:35:19;4.90;;;2.78;;
36351;SDS011;22382;44.768;17.206;2023-06-10T05:37:47;4.80;;;3.05;;
36351;SDS011;22382;44.768;17.206;2023-06-10T05:40:15;4.65;;;2.70;;
36351;SDS011;22382;44.768;17.206;2023-06-10T05:42:42;5.00;;;2.70;;
36351;SDS011;22382;44.768;17.206;2023-06-10T05:45:09;4.25;;;3.00;;
36351;SDS011;22382;44.768;17.206;2023-06-10T05:47:37;3.85;;;2.83;;
36351;SDS011;22382;44.768;17.206;2023-06-10T05:50:04;4.43;;;2.78;;
36351;SDS011;22382;44.768;17.206;2023-06-10T05:52:36;3.17;;;2.83;;
36351;SDS011;22382;44.768;17.206;2023-06-10T05:55:03;7.03;;;2.83;;
36351;SDS011;22382;44.768;17.206;2023-06-10T05:57:30;4.30;;;2.63;;
36351;SDS011;22382;44.768;17.206;2023-06-10T05:59:57;6.13;;;2.85;;
36351;SDS011;22382;44.768;17.206;2023-06-10T06:02:25;3.92;;;2.50;;
36351;SDS011;22382;44.768;17.206;2023-06-10T06:04:52;6.03;;;2.80;;
36351;SDS011;22382;44.768;17.206;2023-06-10T06:07:19;2.40;;;2.20;;
36351;SDS011;22382;44.768;17.206;2023-06-10T06:09:47;3.00;;;2.28;;
36351;SDS011;22382;44.768;17.206;2023-06-10T06:12:14;4.35;;;2.60;;
36351;SDS011;22382;44.768;17.206;2023-06-10T06:14:42;4.38;;;2.67;;
36351;SDS011;22382;44.768;17.206;2023-06-10T06:17:09;3.58;;;2.15;;
36351;SDS011;22382;44.768;17.206;2023-06-10T06:19:36;2.42;;;2.10;;
36351;SDS011;22382;44.768;17.206;2023-06-10T06:22:03;5.32;;;2.58;;
36351;SDS011;22382;44.768;17.206;2023-06-10T06:24:31;5.50;;;2.45;;
36351;SDS011;22382;44.768;17.206;2023-06-10T06:26:58;3.42;;;2.60;;
36351;SDS011;22382;44.768;17.206;2023-06-10T06:29:26;5.93;;;2.80;;
36351;SDS011;22382;44.768;17.206;2023-06-10T06:31:53;4.10;;;2.35;;
36351;SDS011;22382;44.768;17.206;2023-06-10T06:34:21;3.17;;;2.47;;
36351;SDS011;22382;44.768;17.206;2023-06-10T06:36:48;3.08;;;2.38;;
36351;SDS011;22382;44.768;17.206;2023-06-10T06:39:15;3.28;;;2.72;;
36351;SDS011;22382;44.768;17.206;2023-06-10T06:41:42;5.85;;;2.58;;
36351;SDS011;22382;44.768;17.206;2023-06-10T06:44:09;3.70;;;2.30;;
36351;SDS011;22382;44.768;17.206;2023-06-10T06:46:37;3.38;;;2.38;;
36351;SDS011;22382;44.768;17.206;2023-06-10T06:49:04;4.50;;;2.83;;
36351;SDS011;22382;44.768;17.206;2023-06-10T06:51:31;4.38;;;2.53;;
36351;SDS011;22382;44.768;17.206;2023-06-10T06:53:58;3.30;;;2.17;;
36351;SDS011;22382;44.768;17.206;2023-06-10T06:56:26;3.40;;;2.33;;
36351;SDS011;22382;44.768;17.206;2023-06-10T06:58:54;2.67;;;2.10;;
36351;SDS011;22382;44.768;17.206;2023-06-10T07:01:23;3.80;;;2.20;;
36351;SDS011;22382;44.768;17.206;2023-06-10T07:03:51;4.00;;;2.25;;
36351;SDS011;22382;44.768;17.206;2023-06-10T07:06:18;2.95;;;2.17;;
36351;SDS011;22382;44.768;17.206;2023-06-10T07:08:45;4.00;;;2.40;;
36351;SDS011;22382;44.768;17.206;2023-06-10T07:11:12;3.80;;;2.40;;
36351;SDS011;22382;44.768;17.206;2023-06-10T07:13:41;3.80;;;2.10;;
36351;SDS011;22382;44.768;17.206;2023-06-10T07:16:08;3.83;;;2.17;;
36351;SDS011;22382;44.768;17.206;2023-06-10T07:18:35;2.72;;;2.40;;
36351;SDS011;22382;44.768;17.206;2023-06-10T07:21:03;5.97;;;2.45;;
36351;SDS011;22382;44.768;17.206;2023-06-10T07:23:30;5.13;;;2.70;;
36351;SDS011;22382;44.768;17.206;2023-06-10T07:25:57;3.45;;;2.42;;
36351;SDS011;22382;44.768;17.206;2023-06-10T07:28:25;6.45;;;2.72;;
36351;SDS011;22382;44.768;17.206;2023-06-10T07:30:52;2.85;;;2.55;;
36351;SDS011;22382;44.768;17.206;2023-06-10T07:33:19;4.15;;;2.47;;
36351;SDS011;22382;44.768;17.206;2023-06-10T07:35:47;3.20;;;2.00;;
36351;SDS011;22382;44.768;17.206;2023-06-10T07:38:14;5.75;;;2.90;;
36351;SDS011;22382;44.768;17.206;2023-06-10T07:40:43;3.00;;;2.67;;
36351;SDS011;22382;44.768;17.206;2023-06-10T07:43:11;3.22;;;2.40;;
36351;SDS011;22382;44.768;17.206;2023-06-10T07:45:41;3.15;;;2.58;;
36351;SDS011;22382;44.768;17.206;2023-06-10T07:48:09;3.22;;;2.63;;
36351;SDS011;22382;44.768;17.206;2023-06-10T07:50:37;3.50;;;2.80;;
36351;SDS011;22382;44.768;17.206;2023-06-10T07:53:04;4.07;;;2.80;;
36351;SDS011;22382;44.768;17.206;2023-06-10T07:55:31;3.38;;;2.45;;
36351;SDS011;22382;44.768;17.206;2023-06-10T07:57:58;6.28;;;2.90;;
36351;SDS011;22382;44.768;17.206;2023-06-10T08:00:26;4.47;;;3.10;;
36351;SDS011;22382;44.768;17.206;2023-06-10T08:02:53;3.67;;;2.50;;
36351;SDS011;22382;44.768;17.206;2023-06-10T08:05:20;6.10;;;2.83;;
36351;SDS011;22382;44.768;17.206;2023-06-10T08:07:48;4.13;;;2.40;;
36351;SDS011;22382;44.768;17.206;2023-06-10T08:10:15;5.53;;;2.55;;
36351;SDS011;22382;44.768;17.206;2023-06-10T08:12:42;3.90;;;2.60;;
36351;SDS011;22382;44.768;17.206;2023-06-10T08:15:10;3.15;;;2.63;;
36351;SDS011;22382;44.768;17.206;2023-06-10T08:17:37;3.83;;;2.65;;
36351;SDS011;22382;44.768;17.206;2023-06-10T08:20:06;4.95;;;2.50;;
36351;SDS011;22382;44.768;17.206;2023-06-10T08:22:33;4.15;;;2.85;;
36351;SDS011;22382;44.768;17.206;2023-06-10T08:25:00;5.47;;;2.90;;
36351;SDS011;22382;44.768;17.206;2023-06-10T08:27:28;4.00;;;2.80;;
36351;SDS011;22382;44.768;17.206;2023-06-10T08:29:55;3.42;;;2.75;;
36351;SDS011;22382;44.768;17.206;2023-06-10T08:32:22;4.15;;;2.67;;
36351;SDS011;22382;44.768;17.206;2023-06-10T08:34:49;4.20;;;3.30;;
36351;SDS011;22382;44.768;17.206;2023-06-10T08:37:17;6.70;;;2.97;;
36351;SDS011;22382;44.768;17.206;2023-06-10T08:39:44;4.47;;;2.70;;
36351;SDS011;22382;44.768;17.206;2023-06-10T08:44:41;7.75;;;6.90;;
36351;SDS011;22382;44.768;17.206;2023-06-10T08:47:16;33.47;;;11.15;;
36351;SDS011;22382;44.768;17.206;2023-06-10T08:49:45;15.43;;;6.80;;
36351;SDS011;22382;44.768;17.206;2023-06-10T08:52:17;6.63;;;3.47;;
36351;SDS011;22382;44.768;17.206;2023-06-10T08:54:56;14.63;;;5.28;;
36351;SDS011;22382;44.768;17.206;2023-06-10T08:57:26;4.82;;;2.85;;
36351;SDS011;22382;44.768;17.206;2023-06-10T08:59:55;10.52;;;4.75;;
36351;SDS011;22382;44.768;17.206;2023-06-10T09:02:24;15.82;;;6.18;;
36351;SDS011;22382;44.768;17.206;2023-06-10T09:04:51;14.10;;;6.28;;
36351;SDS011;22382;44.768;17.206;2023-06-10T09:07:21;12.95;;;5.13;;
36351;SDS011;22382;44.768;17.206;2023-06-10T09:09:52;17.13;;;5.20;;
36351;SDS011;22382;44.768;17.206;2023-06-10T09:12:21;9.70;;;4.22;;
36351;SDS011;22382;44.768;17.206;2023-06-10T09:14:48;18.42;;;7.00;;
36351;SDS011;22382;44.768;17.206;2023-06-10T09:17:16;9.57;;;4.82;;
36351;SDS011;22382;44.768;17.206;2023-06-10T09:19:44;7.40;;;4.32;;
36351;SDS011;22382;44.768;17.206;2023-06-10T09:22:12;14.07;;;6.22;;
36351;SDS011;22382;44.768;17.206;2023-06-10T09:24:40;10.15;;;4.47;;
36351;SDS011;22382;44.768;17.206;2023-06-10T09:27:08;4.65;;;3.10;;
36351;SDS011;22382;44.768;17.206;2023-06-10T09:32:19;5.15;;;3.45;;
36351;SDS011;22382;44.768;17.206;2023-06-10T09:34:47;4.75;;;3.25;;
36351;SDS011;22382;44.768;17.206;2023-06-10T09:37:21;12.85;;;4.20;;
36351;SDS011;22382;44.768;17.206;2023-06-10T09:40:02;6.53;;;3.95;;
36351;SDS011;22382;44.768;17.206;2023-06-10T09:42:35;9.00;;;4.63;;
36351;SDS011;22382;44.768;17.206;2023-06-10T09:45:05;7.80;;;3.58;;
36351;SDS011;22382;44.768;17.206;2023-06-10T09:47:34;7.85;;;3.65;;
36351;SDS011;22382;44.768;17.206;2023-06-10T09:50:01;5.65;;;3.90;;
36351;SDS011;22382;44.768;17.206;2023-06-10T09:52:29;5.38;;;3.75;;
36351;SDS011;22382;44.768;17.206;2023-06-10T09:55:01;6.03;;;3.63;;
36351;SDS011;22382;44.768;17.206;2023-06-10T09:57:32;5.65;;;3.47;;
36351;SDS011;22382;44.768;17.206;2023-06-10T10:00:06;6.68;;;3.25;;
36351;SDS011;22382;44.768;17.206;2023-06-10T10:02:43;3.80;;;3.15;;
36351;SDS011;22382;44.768;17.206;2023-06-10T10:05:15;7.22;;;3.80;;
36351;SDS011;22382;44.768;17.206;2023-06-10T10:07:43;9.00;;;3.92;;
36351;SDS011;22382;44.768;17.206;2023-06-10T10:10:12;6.43;;;3.60;;
36351;SDS011;22382;44.768;17.206;2023-06-10T10:12:46;7.40;;;3.50;;
36351;SDS011;22382;44.768;17.206;2023-06-10T10:15:17;4.05;;;3.22;;
36351;SDS011;22382;44.768;17.206;2023-06-10T10:17:56;5.53;;;3.55;;
36351;SDS011;22382;44.768;17.206;2023-06-10T10:20:31;7.35;;;3.45;;
36351;SDS011;22382;44.768;17.206;2023-06-10T10:23:02;4.90;;;3.42;;
36351;SDS011;22382;44.768;17.206;2023-06-10T10:25:34;4.63;;;3.45;;
36351;SDS011;22382;44.768;17.206;2023-06-10T10:30:37;4.82;;;2.92;;
36351;SDS011;22382;44.768;17.206;2023-06-10T10:33:23;3.85;;;3.00;;
36351;SDS011;22382;44.768;17.206;2023-06-10T10:36:00;6.55;;;3.45;;
36351;SDS011;22382;44.768;17.206;2023-06-10T10:38:27;4.32;;;3.65;;
36351;SDS011;22382;44.768;17.206;2023-06-10T10:40:55;7.40;;;3.28;;
36351;SDS011;22382;44.768;17.206;2023-06-10T10:43:26;4.38;;;3.33;;
36351;SDS011;22382;44.768;17.206;2023-06-10T10:46:02;5.70;;;3.63;;
36351;SDS011;22382;44.768;17.206;2023-06-10T10:48:39;5.60;;;3.20;;
36351;SDS011;22382;44.768;17.206;2023-06-10T10:51:11;3.70;;;3.15;;
36351;SDS011;22382;44.768;17.206;2023-06-10T10:53:42;3.83;;;2.83;;
36351;SDS011;22382;44.768;17.206;2023-06-10T10:56:14;4.72;;;3.28;;
36351;SDS011;22382;44.768;17.206;2023-06-10T11:01:41;3.72;;;3.00;;
36351;SDS011;22382;44.768;17.206;2023-06-10T11:04:13;3.88;;;3.15;;
36351;SDS011;22382;44.768;17.206;2023-06-10T11:06:53;3.65;;;3.22;;
36351;SDS011;22382;44.768;17.206;2023-06-10T11:09:32;3.17;;;2.88;;
36351;SDS011;22382;44.768;17.206;2023-06-10T11:11:59;4.65;;;3.22;;
36351;SDS011;22382;44.768;17.206;2023-06-10T11:14:27;3.40;;;2.97;;
36351;SDS011;22382;44.768;17.206;2023-06-10T11:16:58;4.25;;;2.88;;
36351;SDS011;22382;44.768;17.206;2023-06-10T11:19:35;5.75;;;2.75;;
36351;SDS011;22382;44.768;17.206;2023-06-10T11:24:50;4.10;;;3.20;;
36351;SDS011;22382;44.768;17.206;2023-06-10T11:27:18;3.90;;;2.55;;
36351;SDS011;22382;44.768;17.206;2023-06-10T11:32:30;3.22;;;2.60;;
36351;SDS011;22382;44.768;17.206;2023-06-10T11:35:06;4.88;;;3.08;;
36351;SDS011;22382;44.768;17.206;2023-06-10T11:37:35;4.32;;;3.10;;
36351;SDS011;22382;44.768;17.206;2023-06-10T11:40:02;4.47;;;2.80;;
36351;SDS011;22382;44.768;17.206;2023-06-10T11:42:30;3.97;;;2.78;;
36351;SDS011;22382;44.768;17.206;2023-06-10T11:44:58;4.43;;;2.58;;
36351;SDS011;22382;44.768;17.206;2023-06-10T11:47:26;2.72;;;2.10;;
36351;SDS011;22382;44.768;17.206;2023-06-10T11:49:56;3.65;;;2.58;;
36351;SDS011;22382;44.768;17.206;2023-06-10T11:52:30;3.53;;;2.33;;
36351;SDS011;22382;44.768;17.206;2023-06-10T11:55:00;2.55;;;2.08;;
36351;SDS011;22382;44.768;17.206;2023-06-10T11:57:27;3.45;;;2.13;;
36351;SDS011;22382;44.768;17.206;2023-06-10T11:59:55;2.88;;;2.22;;
36351;SDS011;22382;44.768;17.206;2023-06-10T12:02:22;2.50;;;2.20;;
36351;SDS011;22382;44.768;17.206;2023-06-10T12:04:49;2.95;;;2.25;;
36351;SDS011;22382;44.768;17.206;2023-06-10T12:07:18;2.47;;;1.90;;
36351;SDS011;22382;44.768;17.206;2023-06-10T12:09:58;2.65;;;2.17;;
36351;SDS011;22382;44.768;17.206;2023-06-10T12:12:44;2.80;;;2.28;;
36351;SDS011;22382;44.768;17.206;2023-06-10T12:15:19;2.83;;;2.20;;
36351;SDS011;22382;44.768;17.206;2023-06-10T12:17:51;2.58;;;1.90;;
36351;SDS011;22382;44.768;17.206;2023-06-10T12:20:29;3.70;;;2.40;;
36351;SDS011;22382;44.768;17.206;2023-06-10T12:23:00;2.25;;;1.90;;
36351;SDS011;22382;44.768;17.206;2023-06-10T12:25:35;2.10;;;1.90;;
36351;SDS011;22382;44.768;17.206;2023-06-10T12:28:05;3.13;;;2.15;;
36351;SDS011;22382;44.768;17.206;2023-06-10T12:30:37;2.40;;;1.87;;
36351;SDS011;22382;44.768;17.206;2023-06-10T12:33:04;4.55;;;1.80;;
36351;SDS011;22382;44.768;17.206;2023-06-10T12:35:49;2.72;;;2.00;;
36351;SDS011;22382;44.768;17.206;2023-06-10T12:38:24;3.00;;;2.22;;
36351;SDS011;22382;44.768;17.206;2023-06-10T12:41:04;2.55;;;2.30;;
36351;SDS011;22382;44.768;17.206;2023-06-10T12:43:33;3.38;;;2.40;;
36351;SDS011;22382;44.768;17.206;2023-06-10T12:46:10;3.10;;;2.60;;
36351;SDS011;22382;44.768;17.206;2023-06-10T12:48:44;3.40;;;2.80;;
36351;SDS011;22382;44.768;17.206;2023-06-10T12:53:47;3.25;;;2.30;;
36351;SDS011;22382;44.768;17.206;2023-06-10T12:56:15;2.70;;;2.38;;
36351;SDS011;22382;44.768;17.206;2023-06-10T12:58:42;4.68;;;2.63;;
36351;SDS011;22382;44.768;17.206;2023-06-10T13:01:12;3.38;;;2.50;;
36351;SDS011;22382;44.768;17.206;2023-06-10T13:03:39;3.15;;;2.58;;
36351;SDS011;22382;44.768;17.206;2023-06-10T13:06:07;4.60;;;2.75;;
36351;SDS011;22382;44.768;17.206;2023-06-10T13:08:34;4.28;;;2.60;;
36351;SDS011;22382;44.768;17.206;2023-06-10T13:11:01;3.13;;;2.50;;
36351;SDS011;22382;44.768;17.206;2023-06-10T13:13:29;3.58;;;2.30;;
36351;SDS011;22382;44.768;17.206;2023-06-10T13:15:56;5.85;;;2.58;;
36351;SDS011;22382;44.768;17.206;2023-06-10T13:18:23;3.40;;;2.63;;
36351;SDS011;22382;44.768;17.206;2023-06-10T13:20:50;3.47;;;2.78;;
36351;SDS011;22382;44.768;17.206;2023-06-10T13:23:17;2.85;;;2.60;;
36351;SDS011;22382;44.768;17.206;2023-06-10T13:25:45;3.55;;;3.08;;
36351;SDS011;22382;44.768;17.206;2023-06-10T13:28:13;3.30;;;2.55;;
36351;SDS011;22382;44.768;17.206;2023-06-10T13:30:40;3.65;;;3.08;;
36351;SDS011;22382;44.768;17.206;2023-06-10T13:33:07;3.15;;;2.85;;
36351;SDS011;22382;44.768;17.206;2023-06-10T13:35:34;4.22;;;3.22;;
36351;SDS011;22382;44.768;17.206;2023-06-10T13:38:02;6.47;;;4.20;;
36351;SDS011;22382;44.768;17.206;2023-06-10T13:40:29;44.83;;;12.73;;
36351;SDS011;22382;44.768;17.206;2023-06-10T13:42:56;7.50;;;3.88;;
36351;SDS011;22382;44.768;17.206;2023-06-10T13:45:24;5.57;;;3.75;;
36351;SDS011;22382;44.768;17.206;2023-06-10T13:47:51;11.68;;;5.28;;
36351;SDS011;22382;44.768;17.206;2023-06-10T13:50:18;6.10;;;3.97;;
36351;SDS011;22382;44.768;17.206;2023-06-10T13:52:46;7.47;;;4.82;;
36351;SDS011;22382;44.768;17.206;2023-06-10T13:55:13;6.45;;;4.43;;
36351;SDS011;22382;44.768;17.206;2023-06-10T13:57:40;6.68;;;4.18;;
36351;SDS011;22382;44.768;17.206;2023-06-10T14:00:08;9.15;;;5.07;;
36351;SDS011;22382;44.768;17.206;2023-06-10T14:02:37;7.10;;;4.28;;
36351;SDS011;22382;44.768;17.206;2023-06-10T14:05:05;5.45;;;3.75;;
36351;SDS011;22382;44.768;17.206;2023-06-10T14:07:35;6.13;;;3.83;;
36351;SDS011;22382;44.768;17.206;2023-06-10T14:10:03;6.85;;;3.92;;
36351;SDS011;22382;44.768;17.206;2023-06-10T14:12:31;5.00;;;3.58;;
36351;SDS011;22382;44.768;17.206;2023-06-10T14:14:58;5.22;;;3.83;;
36351;SDS011;22382;44.768;17.206;2023-06-10T14:17:25;6.32;;;3.85;;
36351;SDS011;22382;44.768;17.206;2023-06-10T14:19:53;5.72;;;4.28;;
36351;SDS011;22382;44.768;17.206;2023-06-10T14:22:20;8.32;;;4.20;;
36351;SDS011;22382;44.768;17.206;2023-06-10T14:24:47;10.95;;;4.82;;
36351;SDS011;22382;44.768;17.206;2023-06-10T14:27:14;5.47;;;3.88;;
36351;SDS011;22382;44.768;17.206;2023-06-10T14:29:41;10.18;;;4.90;;
36351;SDS011;22382;44.768;17.206;2023-06-10T14:32:09;7.22;;;4.15;;
36351;SDS011;22382;44.768;17.206;2023-06-10T14:34:36;8.32;;;5.13;;
36351;SDS011;22382;44.768;17.206;2023-06-10T14:37:05;5.68;;;4.32;;
36351;SDS011;22382;44.768;17.206;2023-06-10T14:39:34;5.88;;;4.03;;
36351;SDS011;22382;44.768;17.206;2023-06-10T14:42:01;6.70;;;4.20;;
36351;SDS011;22382;44.768;17.206;2023-06-10T14:44:29;4.68;;;4.18;;
36351;SDS011;22382;44.768;17.206;2023-06-10T14:46:56;5.57;;;4.57;;
36351;SDS011;22382;44.768;17.206;2023-06-10T14:49:23;7.78;;;4.85;;
36351;SDS011;22382;44.768;17.206;2023-06-10T14:51:51;6.22;;;3.92;;
36351;SDS011;22382;44.768;17.206;2023-06-10T14:54:18;7.25;;;4.05;;
36351;SDS011;22382;44.768;17.206;2023-06-10T14:56:45;6.20;;;4.63;;
36351;SDS011;22382;44.768;17.206;2023-06-10T14:59:13;9.05;;;4.97;;
36351;SDS011;22382;44.768;17.206;2023-06-10T15:01:40;5.55;;;3.90;;
36351;SDS011;22382;44.768;17.206;2023-06-10T15:04:07;4.82;;;3.92;;
36351;SDS011;22382;44.768;17.206;2023-06-10T15:06:36;6.25;;;3.67;;
36351;SDS011;22382;44.768;17.206;2023-06-10T15:09:06;5.68;;;3.60;;
36351;SDS011;22382;44.768;17.206;2023-06-10T15:11:37;4.97;;;3.72;;